Time;durP1;ratioP1;P1;durP2;ratioP2;P2;SDS_P1;SDS_P2;PMS_P1;PMS_P2;Temp;Humidity;BMP_temperature;BMP_pressure;BME280_temperature;BME280_humidity;BME280_pressure;Samples;Min_cycle;Max_cycle;Signal;HPM_P1;HPM_P2
2022/06/10 00:00:56;;;;;;;4.22;1.50;;;23.10;59.90;;;;;;5059319;28;20043;-66
2022/06/10 00:03:25;;;;;;;4.38;1.60;;;23.10;60.00;;;;;;5061945;28;20029;-65
2022/06/10 00:05:53;;;;;;;3.22;1.63;;;23.10;60.00;;;;;;5060612;28;20370;-65
2022/06/10 00:08:22;;;;;;;5.90;1.50;;;23.10;60.00;;;;;;5060260;28;20021;-66
2022/06/10 00:10:51;;;;;;;4.47;1.50;;;23.10;60.00;;;;;;5062781;28;20025;-65
2022/06/10 00:13:19;;;;;;;4.75;1.50;;;23.10;60.10;;;;;;5065550;28;20029;-65
2022/06/10 00:15:45;;;;;;;3.70;1.23;;;23.10;60.00;;;;;;5062878;28;20378;-65
2022/06/10 00:18:10;;;;;;;5.88;1.20;;;23.10;60.10;;;;;;5059992;28;20048;-65
2022/06/10 00:20:37;;;;;;;3.72;1.30;;;23.10;60.10;;;;;;5059489;28;20017;-65
2022/06/10 00:23:03;;;;;;;4.85;1.27;;;23.10;60.10;;;;;;5062406;28;20036;-65
2022/06/10 00:25:29;;;;;;;5.78;1.70;;;23.10;60.10;;;;;;5064580;28;20082;-65
2022/06/10 00:27:55;;;;;;;4.85;1.60;;;23.10;60.10;;;;;;5060750;28;20874;-65
2022/06/10 00:30:24;;;;;;;4.07;1.50;;;23.10;60.20;;;;;;5061489;28;20034;-65
2022/06/10 00:32:50;;;;;;;2.40;1.20;;;23.00;60.10;;;;;;5062377;28;20029;-65
2022/06/10 00:35:16;;;;;;;4.40;1.42;;;23.10;60.20;;;;;;5053698;28;20024;-65
2022/06/10 00:37:42;;;;;;;3.83;1.30;;;23.00;60.10;;;;;;5068260;28;20029;-65
2022/06/10 00:40:14;;;;;;;5.03;1.55;;;23.00;60.10;;;;;;5064371;28;20064;-65
2022/06/10 00:42:40;;;;;;;6.32;1.70;;;23.00;60.30;;;;;;5061734;28;20078;-65
2022/06/10 00:45:06;;;;;;;2.40;1.20;;;23.00;60.50;;;;;;5055645;28;20033;-65
2022/06/10 00:47:38;;;;;;;3.28;1.27;;;23.00;60.20;;;;;;5058219;28;20135;-66
2022/06/10 00:50:28;;;;;;;4.22;1.50;;;23.00;60.40;;;;;;5058770;28;20040;-66
2022/06/10 00:52:59;;;;;;;6.97;1.67;;;23.00;60.40;;;;;;5063543;28;20046;-65
2022/06/10 00:55:29;;;;;;;3.65;1.27;;;23.00;60.40;;;;;;5063721;28;20025;-65
2022/06/10 00:58:04;;;;;;;4.55;1.30;;;23.00;60.30;;;;;;5065323;28;20036;-64
2022/06/10 01:00:30;;;;;;;2.78;1.13;;;23.00;60.30;;;;;;5062650;28;20037;-65
2022/06/10 01:02:56;;;;;;;4.32;1.40;;;23.00;60.40;;;;;;5064565;28;20081;-65
2022/06/10 01:05:26;;;;;;;4.85;1.50;;;23.00;60.30;;;;;;5064534;28;20505;-65
2022/06/10 01:08:11;;;;;;;4.80;1.50;;;23.00;60.30;;;;;;5066203;28;20017;-65
2022/06/10 01:11:02;;;;;;;3.83;1.48;;;23.00;60.40;;;;;;5058073;28;20063;-65
2022/06/10 01:13:48;;;;;;;2.58;1.30;;;23.00;60.30;;;;;;5064878;28;20060;-65
2022/06/10 01:16:23;;;;;;;2.35;1.20;;;22.90;60.30;;;;;;5067409;28;20036;-65
2022/06/10 01:19:11;;;;;;;4.35;1.20;;;22.90;60.30;;;;;;5062643;28;20584;-65
2022/06/10 01:21:40;;;;;;;5.00;1.40;;;23.00;60.40;;;;;;5061926;28;20024;-65
2022/06/10 01:24:43;;;;;;;3.53;1.20;;;22.90;60.30;;;;;;5063578;28;20032;-65
2022/06/10 01:30:19;;;;;;;3.40;1.20;;;22.90;60.40;;;;;;5062566;28;20118;-65
2022/06/10 01:33:07;;;;;;;4.85;1.30;;;22.90;60.40;;;;;;5048685;28;20021;-65
2022/06/10 01:35:59;;;;;;;3.30;1.40;;;22.90;60.40;;;;;;5062080;28;20044;-65
2022/06/10 01:38:50;;;;;;;2.63;1.20;;;22.90;60.40;;;;;;5056887;28;20067;-66
2022/06/10 01:41:35;;;;;;;3.30;1.00;;;22.90;60.40;;;;;;5040646;28;20033;-65
2022/06/10 01:44:20;;;;;;;3.50;1.25;;;22.90;60.40;;;;;;5038010;28;20037;-65
2022/06/10 01:46:55;;;;;;;3.90;1.35;;;22.90;60.40;;;;;;5043378;28;20029;-65
2022/06/10 01:49:43;;;;;;;4.40;1.10;;;22.90;60.40;;;;;;5041907;28;20214;-65
2022/06/10 01:52:20;;;;;;;2.92;1.30;;;22.90;60.50;;;;;;4996543;28;20045;-65
2022/06/10 01:55:04;;;;;;;4.15;1.30;;;22.90;60.50;;;;;;4990769;28;20025;-65
2022/06/10 01:57:40;;;;;;;3.00;1.33;;;22.90;60.50;;;;;;5005821;28;20032;-66
2022/06/10 02:00:19;;;;;;;3.42;1.27;;;22.80;60.40;;;;;;5014928;28;20048;-65
2022/06/10 02:03:24;;;;;;;3.22;1.30;;;22.90;60.50;;;;;;5027475;28;20537;-66
2022/06/10 02:05:53;;;;;;;2.93;1.30;;;22.80;60.40;;;;;;5022790;28;20049;-65
2022/06/10 02:08:21;;;;;;;2.90;1.23;;;22.80;60.40;;;;;;5012925;28;20800;-66
2022/06/10 02:10:54;;;;;;;2.70;1.20;;;22.80;60.50;;;;;;5000792;28;20041;-65
2022/06/10 02:13:23;;;;;;;4.82;1.35;;;22.80;60.40;;;;;;5030795;28;20083;-65
2022/06/10 02:15:55;;;;;;;2.78;1.30;;;22.80;60.50;;;;;;5007768;28;20080;-65
2022/06/10 02:18:29;;;;;;;3.08;1.20;;;22.80;60.50;;;;;;5002175;28;20075;-65
2022/06/10 02:21:01;;;;;;;4.78;1.40;;;22.80;60.50;;;;;;5023983;28;20051;-65
2022/06/10 02:23:31;;;;;;;3.42;1.08;;;22.80;60.50;;;;;;5031891;28;20144;-65
2022/06/10 02:25:57;;;;;;;2.88;1.10;;;22.80;60.60;;;;;;5031746;28;20055;-65
2022/06/10 02:28:27;;;;;;;2.38;1.02;;;22.80;60.50;;;;;;5034217;28;20106;-65
2022/06/10 02:31:08;;;;;;;2.70;1.27;;;22.80;60.70;;;;;;5030911;28;20060;-65
2022/06/10 02:33:39;;;;;;;3.17;1.20;;;22.80;60.50;;;;;;5038012;28;20032;-65
2022/06/10 02:36:33;;;;;;;1.70;1.00;;;22.80;60.40;;;;;;5031890;28;20021;-65
2022/06/10 02:39:27;;;;;;;2.97;1.00;;;22.80;60.40;;;;;;5011140;28;20061;-65
2022/06/10 02:42:00;;;;;;;2.25;1.20;;;22.80;60.50;;;;;;5027497;28;20025;-64
2022/06/10 02:44:54;;;;;;;3.80;1.20;;;22.70;60.50;;;;;;5022120;28;20026;-65
2022/06/10 02:47:55;;;;;;;3.00;1.20;;;22.80;60.40;;;;;;5025049;28;20033;-65
2022/06/10 02:50:21;;;;;;;2.25;1.20;;;22.70;60.50;;;;;;5056614;28;20036;-65
2022/06/10 02:52:47;;;;;;;2.63;1.30;;;22.70;60.60;;;;;;5065428;28;20442;-66
2022/06/10 02:55:15;;;;;;;2.38;1.20;;;22.70;60.50;;;;;;5067681;28;20013;-64
2022/06/10 03:03:22;;;;;;;3.30;1.08;;;22.70;60.80;;;;;;5027682;28;20062;-65
2022/06/10 03:06:11;;;;;;;2.80;0.95;;;22.70;60.50;;;;;;5042563;28;20206;-65
2022/06/10 03:09:19;;;;;;;3.00;1.30;;;22.70;60.50;;;;;;5022143;28;20033;-65
2022/06/10 03:11:44;;;;;;;2.10;1.00;;;22.70;60.40;;;;;;5042026;28;20602;-66
2022/06/10 03:14:46;;;;;;;2.13;1.10;;;22.70;60.50;;;;;;5039914;28;20033;-66
2022/06/10 03:17:31;;;;;;;2.53;1.20;;;22.70;60.40;;;;;;5028916;28;20116;-66
2022/06/10 03:20:06;;;;;;;3.28;1.23;;;22.70;60.40;;;;;;5024692;28;20041;-65
2022/06/10 03:22:56;;;;;;;1.92;1.00;;;22.70;60.50;;;;;;5038983;28;20223;-65
2022/06/10 03:25:28;;;;;;;3.17;1.13;;;22.70;60.40;;;;;;5042650;28;20074;-66
2022/06/10 03:28:18;;;;;;;3.10;1.15;;;22.70;60.40;;;;;;5021067;28;20628;-65
2022/06/10 03:31:02;;;;;;;3.92;1.13;;;22.70;60.50;;;;;;5022444;28;20056;-66
2022/06/10 03:33:42;;;;;;;3.38;1.10;;;22.70;60.50;;;;;;5022871;28;20490;-65
2022/06/10 03:36:11;;;;;;;2.88;1.13;;;22.70;60.50;;;;;;5023698;28;21155;-65
2022/06/10 03:38:41;;;;;;;3.20;1.10;;;22.70;60.50;;;;;;5024030;28;20112;-65
2022/06/10 03:41:07;;;;;;;1.70;1.08;;;22.70;60.50;;;;;;5041965;28;20039;-66
2022/06/10 03:43:58;;;;;;;1.55;1.05;;;22.60;60.50;;;;;;5067422;28;20048;-66
2022/06/10 03:46:27;;;;;;;4.43;1.15;;;22.70;60.60;;;;;;5068779;28;20135;-65
2022/06/10 03:48:54;;;;;;;2.35;1.10;;;22.70;60.70;;;;;;5064455;28;20298;-66
2022/06/10 03:51:20;;;;;;;4.38;1.20;;;22.70;60.70;;;;;;5066128;28;20043;-65
2022/06/10 03:53:46;;;;;;;2.78;1.30;;;22.70;60.70;;;;;;5061164;28;20066;-65
2022/06/10 03:56:13;;;;;;;2.67;1.30;;;22.70;60.90;;;;;;5065152;28;20060;-66
2022/06/10 03:58:39;;;;;;;1.75;1.17;;;22.70;60.80;;;;;;5065194;28;20040;-65
2022/06/10 04:01:06;;;;;;;4.25;1.35;;;22.60;60.80;;;;;;5059074;28;20024;-65
2022/06/10 04:03:33;;;;;;;3.15;1.25;;;22.70;61.00;;;;;;5065408;28;20032;-65
2022/06/10 04:05:59;;;;;;;3.70;1.25;;;22.70;61.00;;;;;;5066810;28;20028;-65
2022/06/10 04:08:25;;;;;;;3.10;1.20;;;22.70;61.00;;;;;;5063969;28;20032;-66
2022/06/10 04:10:51;;;;;;;4.93;1.70;;;22.70;61.10;;;;;;5081470;28;20044;-65
2022/06/10 04:13:19;;;;;;;3.20;1.13;;;22.70;61.10;;;;;;5064353;28;20098;-65
2022/06/10 04:15:45;;;;;;;2.83;1.20;;;22.70;61.10;;;;;;5064962;28;20032;-66
2022/06/10 04:18:13;;;;;;;4.00;1.30;;;22.60;61.10;;;;;;5044444;28;20745;-65
2022/06/10 04:20:39;;;;;;;3.65;1.40;;;22.70;61.20;;;;;;5062646;28;20048;-65
2022/06/10 04:23:07;;;;;;;3.70;1.67;;;22.70;61.20;;;;;;5062854;28;20024;-66
2022/06/10 04:25:33;;;;;;;4.10;1.40;;;22.60;61.10;;;;;;5066493;28;20056;-65
2022/06/10 04:27:59;;;;;;;3.00;1.30;;;22.70;61.20;;;;;;5065651;28;20044;-65
2022/06/10 04:30:28;;;;;;;3.10;1.60;;;22.70;61.20;;;;;;5067496;28;20119;-65
2022/06/10 04:32:54;;;;;;;3.55;1.30;;;22.70;61.30;;;;;;5061400;28;20031;-65
2022/06/10 04:35:20;;;;;;;6.20;1.60;;;22.70;61.30;;;;;;5067147;28;20028;-65
2022/06/10 04:37:48;;;;;;;3.13;1.30;;;22.70;61.30;;;;;;5068262;28;20071;-65
2022/06/10 04:40:16;;;;;;;4.95;1.58;;;22.70;61.30;;;;;;5072323;28;20110;-65
2022/06/10 04:42:45;;;;;;;3.15;1.35;;;22.70;61.40;;;;;;5066860;28;20037;-65
2022/06/10 04:45:14;;;;;;;3.05;1.30;;;22.70;61.40;;;;;;5066828;28;20036;-65
2022/06/10 04:47:40;;;;;;;4.65;1.30;;;22.60;61.30;;;;;;5065758;28;20024;-70
2022/06/10 04:50:07;;;;;;;4.10;1.55;;;22.60;61.40;;;;;;5063934;28;20051;-64
2022/06/10 04:52:37;;;;;;;4.35;1.55;;;22.70;61.40;;;;;;5065858;28;20028;-63
2022/06/10 04:55:03;;;;;;;3.75;1.50;;;22.70;61.60;;;;;;5063505;28;20100;-64
2022/06/10 04:57:31;;;;;;;3.50;1.40;;;22.70;61.50;;;;;;5064545;28;20512;-64
2022/06/10 04:59:58;;;;;;;3.00;1.30;;;22.70;61.40;;;;;;5064037;28;20098;-64
2022/06/10 05:02:24;;;;;;;3.03;1.33;;;22.70;61.40;;;;;;5063701;28;20663;-64
2022/06/10 05:04:51;;;;;;;2.65;1.55;;;22.70;61.40;;;;;;5064885;28;20027;-64
2022/06/10 05:07:18;;;;;;;4.60;1.50;;;22.70;61.40;;;;;;5068274;28;20032;-64
2022/06/10 05:09:49;;;;;;;6.80;1.48;;;22.70;61.50;;;;;;5064901;28;20037;-64
2022/06/10 05:12:15;;;;;;;10.07;1.98;;;22.70;61.40;;;;;;5065420;28;20039;-64
2022/06/10 05:14:42;;;;;;;6.38;1.60;;;22.70;61.70;;;;;;5064790;28;20033;-65
2022/06/10 05:17:08;;;;;;;3.92;1.50;;;22.70;62.10;;;;;;5064374;28;20058;-66
2022/06/10 05:19:34;;;;;;;6.72;1.75;;;22.70;62.00;;;;;;5066018;28;20117;-66
2022/06/10 05:22:00;;;;;;;6.57;1.60;;;22.70;61.80;;;;;;5064441;28;20397;-66
2022/06/10 05:24:26;;;;;;;5.88;1.70;;;22.70;61.90;;;;;;5063968;28;20032;-65
2022/06/10 05:26:52;;;;;;;8.23;1.70;;;22.70;62.10;;;;;;5063016;28;20414;-66
2022/06/10 05:29:19;;;;;;;4.93;1.63;;;22.80;62.20;;;;;;5081436;28;20032;-66
2022/06/10 05:31:44;;;;;;;6.75;1.50;;;22.80;62.30;;;;;;5066853;28;20024;-66
2022/06/10 05:36:55;;;;;;;9.53;1.93;;;22.80;62.90;;;;;;5061234;28;20043;-66
2022/06/10 05:39:21;;;;;;;9.55;2.00;;;22.70;62.60;;;;;;5064845;28;20106;-70
2022/06/10 05:42:05;;;;;;;7.85;1.73;;;22.70;62.70;;;;;;5061762;28;20485;-64
2022/06/10 05:44:32;;;;;;;5.50;1.60;;;22.70;62.60;;;;;;5063990;28;20035;-64
2022/06/10 05:47:00;;;;;;;6.28;1.60;;;22.70;62.50;;;;;;5066521;28;20052;-64
2022/06/10 05:49:26;;;;;;;8.15;1.80;;;22.70;62.40;;;;;;5066897;28;20083;-64
2022/06/10 05:51:52;;;;;;;4.90;1.48;;;22.70;62.60;;;;;;5066438;28;20087;-64
2022/06/10 05:54:19;;;;;;;7.95;2.00;;;22.70;62.90;;;;;;5062810;28;20025;-64
2022/06/10 05:56:46;;;;;;;10.52;1.55;;;22.70;62.60;;;;;;5064499;28;20420;-64
2022/06/10 05:59:13;;;;;;;7.50;1.63;;;22.70;62.60;;;;;;5064385;28;20068;-64
2022/06/10 06:01:40;;;;;;;7.35;1.80;;;22.70;62.60;;;;;;5067857;28;20074;-64
2022/06/10 06:04:07;;;;;;;7.93;1.70;;;22.70;62.50;;;;;;5064634;28;20453;-64
2022/06/10 06:06:33;;;;;;;5.43;1.60;;;22.70;62.40;;;;;;5064013;28;20052;-64
2022/06/10 06:08:59;;;;;;;8.05;1.83;;;22.80;62.40;;;;;;5078545;28;20044;-64
2022/06/10 06:11:24;;;;;;;5.63;1.48;;;22.70;62.20;;;;;;5061610;28;20033;-65
2022/06/10 06:13:50;;;;;;;5.47;1.60;;;22.70;62.30;;;;;;5067581;28;20091;-64
2022/06/10 06:16:19;;;;;;;5.70;1.65;;;22.70;62.20;;;;;;5065085;28;20028;-64
2022/06/10 06:18:45;;;;;;;12.18;1.80;;;22.70;62.10;;;;;;5063636;28;20024;-64
2022/06/10 06:21:11;;;;;;;4.88;1.83;;;22.80;62.20;;;;;;5065131;28;20047;-64
2022/06/10 06:23:38;;;;;;;10.90;1.70;;;22.70;62.10;;;;;;5064561;28;20452;-64
2022/06/10 06:26:05;;;;;;;4.75;1.30;;;22.70;62.10;;;;;;5060848;28;20052;-64
2022/06/10 06:28:32;;;;;;;4.85;1.40;;;22.80;62.10;;;;;;5065187;28;20051;-64
2022/06/10 06:30:58;;;;;;;5.57;1.58;;;22.80;62.00;;;;;;5064508;28;20117;-64
2022/06/10 06:33:25;;;;;;;4.55;1.50;;;22.80;62.00;;;;;;5061841;28;20025;-63
2022/06/10 06:35:52;;;;;;;7.28;1.70;;;22.80;62.00;;;;;;5064115;28;20063;-63
2022/06/10 06:38:20;;;;;;;5.78;1.70;;;22.80;62.10;;;;;;5059799;28;20029;-63
2022/06/10 06:40:46;;;;;;;6.47;1.65;;;22.80;62.20;;;;;;5065457;28;20044;-64
2022/06/10 06:43:13;;;;;;;5.10;1.60;;;22.70;62.00;;;;;;5064827;28;20012;-64
2022/06/10 06:45:43;;;;;;;7.10;1.70;;;22.80;62.00;;;;;;5064454;28;20033;-63
2022/06/10 06:48:09;;;;;;;8.15;1.75;;;22.80;62.10;;;;;;5061644;28;20040;-63
2022/06/10 06:50:37;;;;;;;5.40;1.60;;;22.70;62.00;;;;;;5063659;28;20049;-62
2022/06/10 06:53:03;;;;;;;6.82;1.80;;;22.70;62.10;;;;;;5064086;28;20102;-63
2022/06/10 06:55:29;;;;;;;7.00;1.52;;;22.80;62.00;;;;;;5062272;28;20036;-64
2022/06/10 06:57:56;;;;;;;7.70;1.63;;;22.80;62.00;;;;;;5062058;28;20397;-63
2022/06/10 07:00:27;;;;;;;5.97;1.63;;;22.80;62.10;;;;;;5064228;28;20029;-64
2022/06/10 07:02:52;;;;;;;6.55;1.60;;;22.70;62.10;;;;;;5062742;28;20040;-64
2022/06/10 07:05:18;;;;;;;6.35;1.60;;;22.80;62.00;;;;;;5062872;28;20030;-63
2022/06/10 07:07:46;;;;;;;8.35;1.88;;;22.70;62.00;;;;;;5064249;28;20544;-64
2022/06/10 07:10:13;;;;;;;11.30;1.90;;;22.70;62.00;;;;;;5057045;28;20047;-63
2022/06/10 07:12:39;;;;;;;5.95;1.63;;;22.80;62.00;;;;;;5064426;28;20099;-63
2022/06/10 07:15:05;;;;;;;5.70;1.63;;;22.70;62.00;;;;;;5062251;28;20037;-64
2022/06/10 07:17:32;;;;;;;6.80;1.67;;;22.70;63.10;;;;;;5063999;28;20560;-64
2022/06/10 07:20:00;;;;;;;8.70;2.03;;;22.80;62.00;;;;;;5061876;28;20032;-63
2022/06/10 07:22:26;;;;;;;5.30;1.50;;;22.70;62.00;;;;;;5063938;28;20037;-64
2022/06/10 07:24:53;;;;;;;5.50;1.58;;;22.70;62.00;;;;;;5047092;28;20489;-63
2022/06/10 07:27:19;;;;;;;5.00;1.45;;;22.80;62.10;;;;;;5063680;28;20124;-63
2022/06/10 07:29:45;;;;;;;5.22;1.58;;;22.70;62.00;;;;;;5062929;28;20029;-63
2022/06/10 07:32:11;;;;;;;7.32;1.67;;;22.70;62.00;;;;;;5062164;28;20112;-63
2022/06/10 07:34:37;;;;;;;5.82;1.80;;;22.80;62.10;;;;;;5064767;28;20108;-63
2022/06/10 07:37:03;;;;;;;8.40;1.98;;;22.70;62.00;;;;;;5063493;28;20032;-62
2022/06/10 07:39:29;;;;;;;5.47;1.70;;;22.70;62.10;;;;;;5062222;28;20043;-63
2022/06/10 07:42:00;;;;;;;5.78;1.52;;;22.70;62.00;;;;;;5064657;28;20032;-62
2022/06/10 07:44:26;;;;;;;6.28;1.67;;;22.70;62.00;;;;;;5078293;28;20109;-64
2022/06/10 07:46:53;;;;;;;4.15;1.40;;;22.70;62.10;;;;;;5065528;28;20069;-63
2022/06/10 07:49:23;;;;;;;7.07;1.90;;;22.70;62.10;;;;;;5062221;28;20049;-63
2022/06/10 07:51:49;;;;;;;5.53;1.60;;;22.70;62.00;;;;;;5062663;28;20025;-63
2022/06/10 07:54:15;;;;;;;7.63;1.80;;;22.70;62.10;;;;;;5064358;28;20063;-63
2022/06/10 07:56:41;;;;;;;4.93;1.70;;;22.70;62.10;;;;;;5060784;28;20682;-63
2022/06/10 07:59:08;;;;;;;4.50;1.60;;;22.70;62.00;;;;;;5062934;28;20036;-64
2022/06/10 08:01:34;;;;;;;4.70;1.65;;;22.70;62.10;;;;;;5065876;28;20036;-64
2022/06/10 08:04:00;;;;;;;4.93;1.60;;;22.70;62.00;;;;;;5062151;28;20098;-63
2022/06/10 08:06:27;;;;;;;4.75;1.58;;;22.70;62.00;;;;;;5061006;28;20025;-64
2022/06/10 08:08:54;;;;;;;5.65;1.50;;;22.70;62.00;;;;;;5067487;28;20036;-63
2022/06/10 08:11:20;;;;;;;4.70;1.50;;;22.70;62.00;;;;;;5066412;28;20514;-63
2022/06/10 08:13:46;;;;;;;6.53;1.67;;;22.70;62.00;;;;;;5050200;28;20032;-64
2022/06/10 08:16:13;;;;;;;6.18;1.60;;;22.80;62.00;;;;;;5049044;28;20082;-63
2022/06/10 08:18:40;;;;;;;6.88;1.80;;;22.70;62.00;;;;;;5067444;28;20040;-63
2022/06/10 08:23:50;;;;;;;6.47;1.65;;;22.80;62.00;;;;;;5068120;28;20718;-63
2022/06/10 08:26:16;;;;;;;4.55;1.65;;;22.70;62.00;;;;;;5064260;28;20044;-63
2022/06/10 08:28:44;;;;;;;4.00;1.30;;;22.70;62.10;;;;;;5068132;28;20020;-63
2022/06/10 08:31:10;;;;;;;4.03;1.60;;;22.70;62.00;;;;;;5066697;28;20037;-64
2022/06/10 08:33:37;;;;;;;4.20;1.80;;;22.70;62.00;;;;;;5065876;28;20066;-64
2022/06/10 08:36:04;;;;;;;3.92;1.40;;;22.70;62.00;;;;;;5067239;28;20043;-63
2022/06/10 08:38:30;;;;;;;5.30;1.63;;;22.70;62.00;;;;;;5066628;28;20028;-63
2022/06/10 08:41:10;;;;;;;3.92;1.40;;;22.80;62.00;;;;;;5067625;28;20484;-63
2022/06/10 08:43:40;;;;;;;6.03;1.50;;;22.80;61.90;;;;;;5066574;28;20166;-63
2022/06/10 08:46:28;;;;;;;7.43;2.03;;;22.80;61.90;;;;;;5065967;28;20519;-63
2022/06/10 08:49:06;;;;;;;7.28;1.70;;;22.80;61.90;;;;;;5064250;28;20070;-63
2022/06/10 08:51:53;;;;;;;5.70;1.63;;;22.80;61.90;;;;;;5066545;28;20086;-64
2022/06/10 08:54:28;;;;;;;6.38;1.83;;;22.80;61.80;;;;;;5066358;28;20413;-63
2022/06/10 08:56:56;;;;;;;3.40;1.48;;;22.80;61.80;;;;;;5065730;28;20028;-63
2022/06/10 08:59:29;;;;;;;3.65;1.40;;;22.80;61.80;;;;;;5064409;28;20039;-63
2022/06/10 09:02:05;;;;;;;4.68;1.70;;;22.90;61.70;;;;;;5064121;28;20371;-62
2022/06/10 09:04:52;;;;;;;5.75;1.65;;;22.90;61.70;;;;;;5067530;28;20052;-63
2022/06/10 09:07:53;;;;;;;3.65;1.40;;;22.90;61.70;;;;;;5066767;28;20063;-63
2022/06/10 09:10:41;;;;;;;5.68;1.50;;;22.90;61.60;;;;;;5066324;28;20017;-63
2022/06/10 09:13:28;;;;;;;4.13;1.60;;;22.90;61.50;;;;;;5064529;28;20017;-63
2022/06/10 09:16:18;;;;;;;4.47;1.48;;;22.90;61.50;;;;;;5063321;28;20028;-62
2022/06/10 09:19:22;;;;;;;6.22;1.60;;;22.90;61.50;;;;;;5063978;28;20024;-64
2022/06/10 09:22:12;;;;;;;4.38;1.50;;;23.00;61.50;;;;;;5065182;28;20396;-63
2022/06/10 09:24:48;;;;;;;4.20;1.63;;;23.00;61.40;;;;;;5063777;28;20037;-63
2022/06/10 09:27:33;;;;;;;4.05;1.48;;;23.00;61.40;;;;;;5066690;28;20481;-62
2022/06/10 09:30:03;;;;;;;;;;;23.00;61.40;;;;;;5050277;28;20104;-63
2022/06/10 09:32:38;;;;;;;5.90;1.50;;;23.00;61.40;;;;;;5064044;28;19997;-63
2022/06/10 09:35:16;;;;;;;4.65;1.70;;;23.00;61.40;;;;;;5064176;28;20145;-63
2022/06/10 09:38:04;;;;;;;4.03;1.52;;;23.00;62.40;;;;;;5066493;28;20043;-63
2022/06/10 09:40:41;;;;;;;5.15;1.50;;;23.00;61.40;;;;;;5068126;28;20507;-63
2022/06/10 09:43:27;;;;;;;5.40;1.63;;;23.00;61.30;;;;;;5066676;28;20027;-64
2022/06/10 09:46:02;;;;;;;5.60;1.65;;;23.00;61.40;;;;;;5062105;28;20051;-63
2022/06/10 09:48:59;;;;;;;6.97;1.85;;;23.00;61.40;;;;;;5064933;28;20047;-63
2022/06/10 09:51:51;;;;;;;5.32;1.73;;;23.00;61.40;;;;;;5043433;28;20056;-64
2022/06/10 09:54:38;;;;;;;3.47;1.50;;;23.00;61.40;;;;;;4999067;28;20056;-63
2022/06/10 09:57:41;;;;;;;4.90;1.58;;;23.00;61.40;;;;;;4998236;28;20511;-64
2022/06/10 10:00:17;;;;;;;4.50;1.50;;;23.00;61.30;;;;;;5005110;28;20112;-63
2022/06/10 10:03:01;;;;;;;4.40;1.40;;;23.00;61.30;;;;;;4986724;28;20117;-63
2022/06/10 10:05:38;;;;;;;5.20;1.70;;;23.00;61.30;;;;;;5002684;28;23670;-63
2022/06/10 10:08:10;;;;;;;3.88;1.63;;;23.00;62.30;;;;;;5004117;28;20182;-63
2022/06/10 10:10:38;;;;;;;5.38;1.60;;;23.00;61.30;;;;;;5005783;28;20149;-63
2022/06/10 10:13:38;;;;;;;4.88;1.67;;;23.10;61.30;;;;;;4970395;28;20527;-63
2022/06/10 10:16:29;;;;;;;4.70;1.50;;;23.10;61.40;;;;;;4999996;28;20108;-63
2022/06/10 10:19:09;;;;;;;5.68;1.52;;;23.10;61.40;;;;;;5004405;28;20049;-63
2022/06/10 10:21:56;;;;;;;4.10;1.58;;;23.10;61.40;;;;;;5005380;28;20505;-63
2022/06/10 10:24:24;;;;;;;3.95;1.70;;;23.10;61.20;;;;;;5004782;28;20049;-63
2022/06/10 10:26:52;;;;;;;5.82;1.52;;;23.10;61.40;;;;;;4988050;28;20471;-63
2022/06/10 10:29:23;;;;;;;2.65;1.40;;;23.10;61.30;;;;;;5003126;28;20034;-63
2022/06/10 10:31:59;;;;;;;5.15;1.60;;;23.10;61.20;;;;;;5033592;28;20131;-63
2022/06/10 10:34:29;;;;;;;5.15;1.50;;;23.10;61.20;;;;;;5063165;28;20032;-63
2022/06/10 10:36:57;;;;;;;6.25;1.80;;;23.10;61.20;;;;;;5064946;28;20221;-63
2022/06/10 10:39:27;;;;;;;3.92;1.67;;;23.20;61.30;;;;;;5063368;28;20186;-63
2022/06/10 10:41:53;;;;;;;4.25;1.27;;;23.20;61.20;;;;;;5065718;28;20028;-63
2022/06/10 10:44:39;;;;;;;3.72;1.38;;;23.20;61.20;;;;;;5062194;28;20079;-63
2022/06/10 10:47:04;;;;;;;;;;;23.20;61.20;;;;;;5062810;28;20469;-64
2022/06/10 10:49:35;;;;;;;6.32;1.70;;;23.20;61.20;;;;;;5062641;28;19923;-63
2022/06/10 10:52:48;;;;;;;6.05;1.70;;;23.20;61.20;;;;;;5063087;28;20082;-63
2022/06/10 10:55:14;;;;;;;5.07;1.77;;;23.20;61.30;;;;;;5063076;28;20036;-63
2022/06/10 10:57:53;;;;;;;5.13;1.50;;;23.20;61.30;;;;;;5064538;28;20099;-64
2022/06/10 11:00:32;;;;;;;5.18;1.50;;;23.20;61.20;;;;;;5045582;28;20525;-63
2022/06/10 11:03:01;;;;;;;3.25;1.40;;;23.20;61.10;;;;;;5065267;28;20025;-63
2022/06/10 11:05:32;;;;;;;5.60;1.60;;;23.20;61.10;;;;;;5062639;28;20047;-63
2022/06/10 11:08:21;;;;;;;5.20;1.58;;;23.20;61.10;;;;;;5061148;28;20115;-63
2022/06/10 11:10:56;;;;;;;6.97;1.70;;;23.20;61.10;;;;;;5064442;28;20115;-63
2022/06/10 11:13:37;;;;;;;3.95;1.35;;;23.30;61.20;;;;;;5063977;28;20033;-63
2022/06/10 11:16:27;;;;;;;5.03;1.50;;;23.30;61.10;;;;;;5063521;28;20478;-63
2022/06/10 11:19:00;;;;;;;5.03;1.55;;;23.30;61.10;;;;;;5062296;28;20025;-63
2022/06/10 11:21:26;;;;;;;3.95;1.60;;;23.30;60.90;;;;;;5063809;28;20035;-63
2022/06/10 11:23:57;;;;;;;5.45;1.60;;;23.30;60.90;;;;;;5058327;28;20028;-64
2022/06/10 11:26:25;;;;;;;5.57;1.80;;;23.30;60.90;;;;;;5060280;28;20039;-63
2022/06/10 11:28:59;;;;;;;5.80;1.88;;;23.30;60.90;;;;;;5065938;28;21510;-63
2022/06/10 11:31:31;;;;;;;6.37;1.90;;;23.30;60.90;;;;;;5063777;28;20492;-63
2022/06/10 11:33:57;;;;;;;5.97;1.65;;;23.30;60.90;;;;;;5062972;28;20393;-63
2022/06/10 11:36:29;;;;;;;3.85;1.40;;;23.40;60.90;;;;;;5063439;28;20044;-63
2022/06/10 11:39:12;;;;;;;5.30;1.60;;;23.30;60.90;;;;;;5062864;28;20044;-63
2022/06/10 11:41:38;;;;;;;5.10;1.80;;;23.40;60.90;;;;;;5059881;28;20074;-63
2022/06/10 11:44:16;;;;;;;4.82;1.70;;;23.40;60.80;;;;;;5061462;28;20020;-63
2022/06/10 11:46:52;;;;;;;5.43;1.80;;;23.40;60.80;;;;;;5061318;28;20020;-63
2022/06/10 11:49:40;;;;;;;4.53;1.60;;;23.40;60.80;;;;;;5062154;28;20584;-63
2022/06/10 11:52:14;;;;;;;4.50;1.63;;;23.40;60.70;;;;;;5049312;28;20020;-63
2022/06/10 11:54:59;;;;;;;;;;;23.50;60.80;;;;;;5061022;28;20040;-63
2022/06/10 12:00:32;;;;;;;4.47;1.60;;;23.50;60.80;;;;;;5047967;28;20151;-64
2022/06/10 12:03:22;;;;;;;6.60;1.90;;;23.50;60.80;;;;;;5075061;28;20112;-64
2022/06/10 12:06:18;;;;;;;5.78;1.83;;;23.50;60.80;;;;;;5064558;28;20439;-63
2022/06/10 12:08:50;;;;;;;;;;;23.50;60.80;;;;;;5045646;28;20078;-63
2022/06/10 12:11:40;;;;;;;4.60;1.60;;;23.50;60.80;;;;;;5078710;28;19974;-63
2022/06/10 12:14:12;;;;;;;5.63;1.75;;;23.50;60.80;;;;;;5061460;28;20028;-63
2022/06/10 12:16:38;;;;;;;5.80;1.90;;;23.50;60.80;;;;;;5064645;28;20493;-63
2022/06/10 12:19:06;;;;;;;5.80;1.90;;;23.50;60.80;;;;;;5061088;28;20043;-63
2022/06/10 12:21:32;;;;;;;6.18;1.88;;;23.50;60.80;;;;;;5061048;28;20070;-63
2022/06/10 12:23:57;;;;;;;3.80;1.50;;;23.50;60.80;;;;;;5078753;28;20028;-63
2022/06/10 12:26:23;;;;;;;4.82;1.77;;;23.50;60.80;;;;;;5063292;28;20543;-63
2022/06/10 12:29:08;;;;;;;3.72;1.40;;;23.50;60.90;;;;;;5063299;28;20028;-63
2022/06/10 12:31:42;;;;;;;4.95;1.80;;;23.60;60.90;;;;;;5065072;28;20051;-63
2022/06/10 12:34:26;;;;;;;7.82;1.70;;;23.50;60.90;;;;;;5059647;28;20021;-63
2022/06/10 12:37:21;;;;;;;5.30;1.70;;;23.50;60.80;;;;;;5063481;28;20032;-63
2022/06/10 12:40:20;;;;;;;6.63;1.67;;;23.50;60.80;;;;;;5049831;28;20338;-64
2022/06/10 12:42:47;;;;;;;3.92;1.60;;;23.60;60.80;;;;;;5034111;28;20032;-64
2022/06/10 12:45:22;;;;;;;5.03;1.65;;;23.60;60.60;;;;;;5048643;28;20648;-64
2022/06/10 12:47:52;;;;;;;5.22;1.70;;;23.60;60.70;;;;;;5048568;28;20032;-64
2022/06/10 12:50:22;;;;;;;6.05;2.13;;;23.60;60.50;;;;;;5029637;28;20055;-64
2022/06/10 12:52:56;;;;;;;8.20;1.92;;;23.50;60.40;;;;;;5033423;28;20552;-64
2022/06/10 12:55:26;;;;;;;7.80;2.28;;;23.50;60.30;;;;;;5055784;28;20025;-64
2022/06/10 12:57:52;;;;;;;9.40;2.38;;;23.50;60.30;;;;;;5032536;28;20115;-64
2022/06/10 13:00:18;;;;;;;8.18;2.25;;;23.50;60.10;;;;;;5052305;28;20056;-65
2022/06/10 13:02:48;;;;;;;12.05;2.95;;;23.50;60.50;;;;;;5046181;28;20021;-65
2022/06/10 13:05:19;;;;;;;9.98;2.33;;;23.50;60.10;;;;;;5052211;28;20564;-65
2022/06/10 13:07:47;;;;;;;8.57;2.35;;;23.50;60.20;;;;;;5051565;28;20028;-65
2022/06/10 13:10:32;;;;;;;11.75;2.78;;;23.50;61.00;;;;;;5031702;28;20038;-65
2022/06/10 13:13:23;;;;;;;11.45;2.70;;;23.50;59.90;;;;;;5054142;28;20059;-65
2022/06/10 13:15:54;;;;;;;17.27;3.35;;;23.50;59.50;;;;;;5056725;28;21616;-65
2022/06/10 13:18:26;;;;;;;20.75;4.28;;;23.40;59.70;;;;;;5063653;28;20021;-65
2022/06/10 13:20:51;;;;;;;27.75;5.25;;;23.30;59.50;;;;;;5065642;28;20108;-65
2022/06/10 13:23:22;;;;;;;25.15;4.95;;;23.30;59.60;;;;;;5064731;28;20112;-65
2022/06/10 13:26:06;;;;;;;24.15;4.97;;;23.30;59.50;;;;;;5067110;28;20082;-65
2022/06/10 13:28:36;;;;;;;28.33;5.28;;;23.30;59.60;;;;;;5069179;28;20021;-65
2022/06/10 13:31:11;;;;;;;22.20;5.18;;;23.30;59.50;;;;;;5064673;28;20032;-65
2022/06/10 13:33:36;;;;;;;;;;;23.30;59.60;;;;;;5065332;28;20021;-66
2022/06/10 13:36:02;;;;;;;27.70;5.68;;;23.30;59.50;;;;;;5064334;28;19931;-65